createdAt,value
2019-01-29T00:01:01.542Z,45.03
2019-01-29T00:03:31.382Z,44.77
2019-01-29T00:06:02.702Z,45.83
2019-01-29T00:08:32.527Z,46.90
2019-01-29T00:11:02.351Z,51.53
2019-01-29T00:13:32.255Z,51.27
2019-01-29T00:16:02.133Z,48.90
2019-01-29T00:18:33.062Z,48.00
2019-01-29T00:21:04.253Z,53.53
2019-01-29T00:23:34.110Z,53.20
2019-01-29T00:26:03.976Z,52.20
2019-01-29T00:28:33.834Z,51.90
2019-01-29T00:31:03.742Z,59.77
2019-01-29T00:33:33.574Z,61.50
2019-01-29T00:36:03.455Z,68.30
2019-01-29T00:38:33.258Z,63.70
2019-01-29T00:41:03.062Z,63.87
2019-01-29T00:43:32.897Z,63.67
2019-01-29T00:46:02.702Z,60.20
2019-01-29T00:48:32.598Z,57.00
2019-01-29T00:51:02.428Z,54.17
2019-01-29T00:53:32.254Z,52.37
2019-01-29T00:56:02.116Z,50.27
2019-01-29T00:58:31.978Z,53.00
2019-01-29T01:01:01.899Z,46.73
2019-01-29T01:03:31.753Z,47.20
2019-01-29T01:06:01.566Z,49.90
2019-01-29T01:08:31.462Z,49.23
2019-01-29T01:11:01.299Z,48.90
2019-01-29T01:13:31.154Z,46.37
2019-01-29T01:16:01.081Z,48.60
2019-01-29T01:18:30.995Z,46.53
2019-01-29T01:21:01.912Z,49.70
2019-01-29T01:23:31.834Z,48.23
2019-01-29T01:26:01.682Z,46.73
2019-01-29T01:28:31.507Z,46.10
2019-01-29T01:31:01.389Z,45.77
2019-01-29T01:33:31.166Z,46.87
2019-01-29T01:36:00.955Z,45.33
2019-01-29T01:38:30.798Z,45.20
2019-01-29T01:41:00.683Z,42.03
2019-01-29T01:43:30.485Z,37.67
2019-01-29T01:46:00.286Z,35.63
2019-01-29T01:48:30.178Z,34.33
2019-01-29T01:51:00.010Z,34.13
2019-01-29T01:53:31.416Z,34.17
2019-01-29T01:56:01.245Z,34.97
2019-01-29T01:58:36.067Z,34.57
2019-01-29T02:01:05.995Z,34.23
2019-01-29T02:03:35.998Z,32.87
2019-01-29T02:06:10.370Z,32.27
2019-01-29T02:08:41.458Z,32.00
2019-01-29T02:11:11.266Z,32.07
2019-01-29T02:13:41.075Z,33.37
2019-01-29T02:16:12.573Z,34.97
2019-01-29T02:18:45.264Z,33.83
2019-01-29T02:21:15.326Z,32.03
2019-01-29T02:23:48.192Z,31.20
2019-01-29T02:26:18.022Z,31.80
2019-01-29T02:28:48.182Z,29.93
2019-01-29T02:31:20.610Z,31.97
2019-01-29T02:33:51.999Z,32.90
2019-01-29T02:36:22.053Z,34.30
2019-01-29T02:38:51.889Z,35.10
2019-01-29T02:41:21.833Z,36.90
2019-01-29T02:43:51.966Z,37.20
2019-01-29T02:46:21.882Z,34.43
2019-01-29T02:48:51.731Z,34.90
2019-01-29T02:51:23.318Z,37.50
2019-01-29T02:53:53.255Z,37.30
2019-01-29T02:56:23.048Z,35.03
2019-01-29T02:58:52.881Z,34.40
2019-01-29T03:01:22.882Z,36.20
2019-01-29T03:04:10.491Z,36.07
2019-01-29T03:06:45.863Z,35.77
2019-01-29T03:09:17.014Z,36.30
2019-01-29T03:11:46.859Z,35.07
2019-01-29T03:14:16.674Z,35.40
2019-01-29T03:16:46.561Z,35.13
2019-01-29T03:19:16.374Z,35.87
2019-01-29T03:21:50.826Z,35.63
2019-01-29T03:24:20.783Z,37.13
2019-01-29T03:26:50.575Z,34.77
2019-01-29T03:29:20.398Z,36.20
2019-01-29T03:31:50.234Z,32.70
2019-01-29T03:34:20.830Z,33.80
2019-01-29T03:36:53.630Z,36.87
2019-01-29T03:39:37.637Z,35.47
2019-01-29T03:42:15.249Z,30.13
2019-01-29T03:44:49.916Z,32.10
2019-01-29T03:47:34.401Z,29.53
2019-01-29T03:50:15.132Z,32.43
2019-01-29T03:52:49.735Z,25.83
2019-01-29T03:55:26.934Z,26.37
2019-01-29T03:57:58.728Z,29.00
2019-01-29T04:00:29.690Z,28.30
2019-01-29T04:02:59.515Z,32.63
2019-01-29T04:05:29.326Z,27.83
2019-01-29T04:07:59.179Z,31.03
2019-01-29T04:10:30.234Z,20.60
2019-01-29T04:13:00.075Z,28.70
2019-01-29T04:15:29.866Z,24.27
2019-01-29T04:17:59.850Z,20.60
2019-01-29T04:20:29.706Z,20.20
2019-01-29T04:23:00.538Z,18.07
2019-01-29T04:25:30.370Z,21.87
2019-01-29T04:28:00.198Z,21.40
2019-01-29T04:30:29.994Z,19.57
2019-01-29T04:32:59.767Z,20.63
2019-01-29T04:35:29.618Z,21.53
2019-01-29T04:37:59.446Z,22.90
2019-01-29T04:40:29.415Z,22.70
2019-01-29T04:42:59.213Z,23.20
2019-01-29T04:45:29.102Z,24.17
2019-01-29T04:47:58.899Z,23.50
2019-01-29T04:50:29.903Z,24.53
2019-01-29T04:52:59.674Z,19.03
2019-01-29T04:55:29.492Z,20.90
2019-01-29T04:57:59.315Z,22.20
2019-01-29T05:00:29.144Z,19.27
2019-01-29T05:02:58.990Z,21.30
2019-01-29T05:05:28.790Z,23.60
2019-01-29T05:07:58.660Z,23.73
2019-01-29T05:10:28.539Z,23.87
2019-01-29T05:12:58.966Z,25.00
2019-01-29T05:15:28.815Z,21.10
2019-01-29T05:17:58.629Z,23.40
2019-01-29T05:20:29.972Z,20.73
2019-01-29T05:22:59.795Z,21.60
2019-01-29T05:25:29.818Z,17.23
2019-01-29T05:27:59.718Z,16.27
2019-01-29T05:30:29.590Z,18.97
2019-01-29T05:33:00.736Z,16.87
2019-01-29T05:35:30.644Z,14.63
2019-01-29T05:38:00.518Z,16.57
2019-01-29T05:40:30.308Z,16.60
2019-01-29T05:43:00.212Z,15.20
2019-01-29T05:45:30.029Z,14.77
2019-01-29T05:47:59.850Z,16.83
2019-01-29T05:50:29.700Z,16.67
2019-01-29T05:52:59.528Z,17.50
2019-01-29T05:55:29.380Z,18.77
2019-01-29T05:57:59.272Z,18.50
2019-01-29T06:00:30.717Z,20.17
2019-01-29T06:03:00.569Z,19.57
2019-01-29T06:05:30.616Z,19.57
2019-01-29T06:08:01.451Z,20.57
2019-01-29T06:10:31.408Z,19.87
2019-01-29T06:13:01.363Z,20.43
2019-01-29T06:15:31.334Z,19.13
2019-01-29T06:18:01.163Z,18.83
2019-01-29T06:20:32.037Z,18.17
2019-01-29T06:23:01.877Z,17.40
2019-01-29T06:25:31.727Z,15.17
2019-01-29T06:28:01.544Z,15.23
2019-01-29T06:30:31.397Z,14.83
2019-01-29T06:33:01.291Z,17.60
2019-01-29T06:35:33.037Z,17.80
2019-01-29T06:38:02.985Z,17.40
2019-01-29T06:40:32.949Z,19.27
2019-01-29T06:43:02.820Z,17.27
2019-01-29T06:45:32.688Z,17.53
2019-01-29T06:48:02.564Z,16.87
2019-01-29T06:50:32.779Z,17.47
2019-01-29T06:53:03.059Z,18.10
2019-01-29T06:55:32.938Z,16.83
2019-01-29T06:58:02.779Z,18.77
2019-01-29T07:00:33.698Z,17.43
2019-01-29T07:03:03.675Z,17.43
2019-01-29T07:05:33.580Z,18.27
2019-01-29T07:08:03.384Z,17.37
2019-01-29T07:10:33.260Z,17.37
2019-01-29T07:13:04.766Z,14.07
2019-01-29T07:15:52.767Z,15.53
2019-01-29T07:18:34.307Z,17.03
2019-01-29T07:21:06.598Z,15.07
2019-01-29T07:23:38.467Z,16.20
2019-01-29T07:26:08.308Z,16.43
2019-01-29T07:28:38.216Z,16.77
2019-01-29T07:31:08.188Z,17.80
2019-01-29T07:33:38.081Z,18.77
2019-01-29T07:36:07.948Z,19.33
2019-01-29T07:38:37.831Z,18.33
2019-01-29T07:41:07.747Z,18.90
2019-01-29T07:43:37.616Z,15.47
2019-01-29T07:46:07.493Z,16.03
2019-01-29T07:48:37.335Z,18.87
2019-01-29T07:51:07.223Z,16.10
2019-01-29T07:53:37.092Z,16.20
2019-01-29T07:56:07.213Z,16.90
2019-01-29T07:58:37.431Z,19.03
2019-01-29T08:01:07.539Z,22.47
2019-01-29T08:03:38.332Z,22.47
2019-01-29T08:06:08.758Z,25.13
2019-01-29T08:08:38.997Z,24.57
2019-01-29T08:11:09.067Z,24.07
2019-01-29T08:13:39.257Z,23.50
2019-01-29T08:16:09.495Z,24.43
2019-01-29T08:18:39.443Z,25.07
2019-01-29T08:21:09.386Z,21.47
2019-01-29T08:23:39.507Z,21.47
2019-01-29T08:26:09.762Z,24.47
2019-01-29T08:28:39.846Z,26.13
2019-01-29T08:31:09.964Z,30.40
2019-01-29T08:33:39.883Z,28.87
2019-01-29T08:36:09.972Z,30.97
2019-01-29T08:38:41.177Z,31.00
2019-01-29T08:41:11.294Z,29.10
2019-01-29T08:43:41.476Z,28.77
2019-01-29T08:46:11.631Z,27.07
2019-01-29T08:48:41.718Z,28.87
2019-01-29T08:51:11.729Z,26.97
2019-01-29T08:53:41.871Z,27.47
2019-01-29T08:56:12.114Z,27.73
2019-01-29T08:58:42.007Z,26.97
2019-01-29T09:01:12.140Z,28.97
2019-01-29T09:03:42.162Z,27.13
2019-01-29T09:06:12.240Z,26.00
2019-01-29T09:08:42.216Z,26.90
2019-01-29T09:11:12.367Z,26.40
2019-01-29T09:13:42.500Z,26.40
2019-01-29T09:16:14.213Z,26.00
2019-01-29T09:18:44.681Z,26.13
2019-01-29T09:21:16.434Z,26.57
2019-01-29T09:23:46.365Z,26.97
2019-01-29T09:26:16.226Z,28.17
2019-01-29T09:28:51.535Z,30.13
2019-01-29T09:31:21.535Z,29.90
2019-01-29T09:33:51.447Z,29.10
2019-01-29T09:36:23.528Z,30.23
2019-01-29T09:38:53.442Z,29.47
2019-01-29T09:41:23.470Z,32.47
2019-01-29T09:43:54.119Z,34.17
2019-01-29T09:46:24.120Z,33.30
2019-01-29T09:48:55.470Z,31.43
2019-01-29T09:51:25.559Z,30.77
2019-01-29T09:53:55.520Z,31.17
2019-01-29T09:56:25.720Z,32.90
2019-01-29T09:58:55.839Z,33.00
2019-01-29T10:01:26.159Z,29.73
2019-01-29T10:03:56.159Z,28.03
2019-01-29T10:06:26.159Z,27.30
2019-01-29T10:08:56.120Z,27.17
2019-01-29T10:11:25.990Z,25.57
2019-01-29T10:13:57.519Z,21.80
2019-01-29T10:16:27.737Z,21.93
2019-01-29T10:18:57.679Z,18.83
2019-01-29T10:21:27.639Z,18.27
2019-01-29T10:23:57.759Z,18.47
2019-01-29T10:26:27.759Z,16.97
2019-01-29T10:28:57.961Z,17.57
2019-01-29T10:31:27.945Z,17.70
2019-01-29T10:33:57.867Z,16.43
2019-01-29T10:36:27.986Z,17.00
2019-01-29T10:38:58.060Z,17.63
2019-01-29T10:41:28.085Z,16.27
2019-01-29T10:43:58.105Z,15.67
2019-01-29T10:46:28.300Z,16.53
2019-01-29T10:48:58.262Z,16.97
2019-01-29T10:51:28.225Z,17.37
2019-01-29T10:53:58.263Z,17.97
2019-01-29T10:56:28.262Z,17.03
2019-01-29T10:59:01.105Z,17.83
2019-01-29T11:01:32.591Z,18.20
2019-01-29T11:04:02.822Z,17.20
2019-01-29T11:06:32.884Z,18.33
2019-01-29T11:09:04.230Z,17.87
2019-01-29T11:11:35.010Z,17.37
2019-01-29T11:14:05.434Z,18.67
2019-01-29T11:16:35.670Z,18.97
2019-01-29T11:19:06.383Z,20.37
2019-01-29T11:21:36.602Z,20.33
2019-01-29T11:24:07.110Z,20.40
2019-01-29T11:26:37.176Z,19.47
2019-01-29T11:29:07.270Z,20.17
2019-01-29T11:31:37.236Z,21.43
2019-01-29T11:34:07.256Z,22.13
2019-01-29T11:36:37.386Z,21.43
2019-01-29T11:39:09.417Z,21.60
2019-01-29T11:41:39.598Z,23.30
2019-01-29T11:44:09.670Z,23.27
2019-01-29T11:46:39.771Z,23.30
2019-01-29T11:49:09.703Z,22.37
2019-01-29T11:51:39.754Z,23.07
2019-01-29T11:54:09.674Z,22.20
2019-01-29T11:56:40.274Z,26.43
2019-01-29T11:59:10.194Z,24.43
2019-01-29T12:01:40.074Z,25.37
2019-01-29T12:04:10.024Z,24.47
2019-01-29T12:06:40.534Z,25.53
2019-01-29T12:09:11.039Z,24.80
2019-01-29T12:11:41.244Z,26.50
2019-01-29T12:14:11.474Z,24.27
2019-01-29T12:16:41.516Z,23.10
2019-01-29T12:19:11.480Z,24.40
2019-01-29T12:21:41.434Z,22.27
2019-01-29T12:24:11.515Z,23.30
2019-01-29T12:26:42.463Z,23.87
2019-01-29T12:29:18.162Z,23.10
2019-01-29T12:31:48.859Z,22.43
2019-01-29T12:34:19.384Z,23.20
2019-01-29T12:36:50.274Z,23.67
2019-01-29T12:39:21.076Z,23.67
2019-01-29T12:41:51.394Z,22.00
2019-01-29T12:44:21.394Z,19.80
2019-01-29T12:46:51.394Z,20.10
2019-01-29T12:49:21.395Z,21.33
2019-01-29T12:51:53.003Z,19.03
2019-01-29T12:54:24.876Z,19.33
2019-01-29T12:56:54.794Z,19.00
2019-01-29T12:59:25.435Z,18.17
2019-01-29T13:02:17.026Z,18.97
2019-01-29T13:04:51.754Z,17.40
2019-01-29T13:07:21.755Z,18.60
2019-01-29T13:09:51.835Z,17.57
2019-01-29T13:12:21.795Z,15.63
2019-01-29T13:14:53.084Z,17.17
2019-01-29T13:17:23.154Z,18.10
2019-01-29T13:19:54.794Z,16.57
2019-01-29T13:22:24.755Z,16.63
2019-01-29T13:24:54.703Z,18.27
2019-01-29T13:27:24.914Z,17.53
2019-01-29T13:29:54.891Z,15.53
2019-01-29T13:32:24.775Z,16.67
2019-01-29T13:34:54.804Z,14.20
2019-01-29T13:37:24.725Z,16.00
2019-01-29T13:39:55.092Z,15.43
2019-01-29T13:42:26.393Z,13.40
2019-01-29T13:45:03.016Z,14.50
2019-01-29T13:47:33.008Z,13.33
2019-01-29T13:50:04.285Z,15.90
2019-01-29T13:52:34.565Z,15.77
2019-01-29T13:55:06.754Z,15.17
2019-01-29T13:57:37.004Z,16.37
2019-01-29T14:00:10.005Z,17.17
2019-01-29T14:02:39.925Z,18.20
2019-01-29T14:05:09.885Z,19.20
2019-01-29T14:07:39.845Z,19.33
2019-01-29T14:10:12.724Z,19.03
2019-01-29T14:12:42.717Z,19.47
2019-01-29T14:15:23.048Z,20.80
2019-01-29T14:17:53.309Z,18.07
2019-01-29T14:20:23.404Z,20.07
2019-01-29T14:22:53.365Z,21.53
2019-01-29T14:25:23.484Z,20.00
2019-01-29T14:27:54.993Z,21.93
2019-01-29T14:30:32.825Z,22.03
2019-01-29T14:33:02.926Z,20.47
2019-01-29T14:35:32.964Z,20.07
2019-01-29T14:38:20.713Z,21.63
2019-01-29T14:40:50.765Z,20.93
2019-01-29T14:43:24.845Z,21.43
2019-01-29T14:45:54.844Z,22.07
2019-01-29T14:48:24.699Z,21.20
2019-01-29T14:50:54.688Z,22.50
2019-01-29T14:53:26.230Z,22.17
2019-01-29T14:55:56.136Z,22.83
2019-01-29T14:58:27.758Z,23.33
2019-01-29T15:00:58.068Z,24.23
2019-01-29T15:03:28.165Z,22.67
2019-01-29T15:05:58.154Z,23.13
2019-01-29T15:08:28.069Z,22.50
2019-01-29T15:10:58.026Z,21.33
2019-01-29T15:13:28.444Z,22.60
2019-01-29T15:16:08.572Z,23.03
2019-01-29T15:18:40.084Z,24.23
2019-01-29T15:21:11.653Z,23.50
2019-01-29T15:23:41.845Z,24.47
2019-01-29T15:26:11.754Z,23.03
2019-01-29T15:28:41.873Z,22.70
2019-01-29T15:31:11.653Z,21.87
2019-01-29T15:33:41.569Z,21.73
2019-01-29T15:36:11.764Z,20.33
2019-01-29T15:38:41.604Z,19.53
2019-01-29T15:41:11.475Z,20.13
2019-01-29T15:43:41.405Z,18.43
2019-01-29T15:46:11.544Z,19.63
2019-01-29T15:48:43.288Z,18.90
2019-01-29T15:51:14.208Z,20.63
2019-01-29T15:53:45.272Z,19.53
2019-01-29T15:56:15.493Z,20.53
2019-01-29T15:58:45.609Z,20.03
2019-01-29T16:01:15.740Z,20.67
2019-01-29T16:03:45.605Z,19.17
2019-01-29T16:06:15.396Z,21.83
2019-01-29T16:08:45.250Z,20.07
2019-01-29T16:11:15.604Z,21.77
2019-01-29T16:13:45.450Z,22.50
2019-01-29T16:16:15.404Z,21.40
2019-01-29T16:18:45.397Z,21.43
2019-01-29T16:21:15.406Z,21.97
2019-01-29T16:23:45.584Z,21.57
2019-01-29T16:26:17.108Z,23.43
2019-01-29T16:28:46.973Z,23.70
2019-01-29T16:31:20.283Z,23.80
2019-01-29T16:33:50.269Z,23.00
2019-01-29T16:36:21.021Z,22.47
2019-01-29T16:38:50.957Z,23.10
2019-01-29T16:41:20.877Z,22.40
2019-01-29T16:43:50.799Z,24.97
2019-01-29T16:46:21.044Z,23.47
2019-01-29T16:48:57.605Z,23.80
2019-01-29T16:51:27.604Z,23.93
2019-01-29T16:53:57.458Z,23.73
2019-01-29T16:56:27.348Z,22.37
2019-01-29T16:58:57.713Z,22.33
2019-01-29T17:01:27.885Z,22.50
2019-01-29T17:03:57.804Z,23.57
2019-01-29T17:06:29.133Z,24.57
2019-01-29T17:09:00.997Z,25.37
2019-01-29T17:11:32.611Z,23.90
2019-01-29T17:14:02.585Z,24.67
2019-01-29T17:16:32.485Z,24.37
2019-01-29T17:19:12.924Z,25.67
2019-01-29T17:21:43.116Z,25.07
2019-01-29T17:24:12.961Z,23.40
2019-01-29T17:26:42.925Z,23.43
2019-01-29T17:29:12.885Z,23.93
2019-01-29T17:31:42.766Z,23.60
2019-01-29T17:34:13.346Z,23.87
2019-01-29T17:36:45.029Z,23.70
2019-01-29T17:39:16.109Z,24.13
2019-01-29T17:41:46.190Z,24.73
2019-01-29T17:44:16.108Z,25.80
2019-01-29T17:46:46.037Z,27.83
2019-01-29T17:49:15.896Z,32.80
2019-01-29T17:51:45.944Z,31.90
2019-01-29T17:54:29.849Z,33.73
2019-01-29T17:57:02.133Z,34.13
2019-01-29T17:59:34.053Z,34.50
2019-01-29T18:02:08.067Z,32.67
2019-01-29T18:04:43.522Z,29.93
2019-01-29T18:07:13.465Z,26.37
2019-01-29T18:09:43.553Z,24.40
2019-01-29T18:12:14.277Z,22.10
2019-01-29T18:14:45.930Z,21.83
2019-01-29T18:17:17.196Z,21.07
2019-01-29T18:19:47.818Z,18.13
2019-01-29T18:22:17.778Z,18.87
2019-01-29T18:24:48.777Z,18.43
2019-01-29T18:27:19.364Z,17.97
2019-01-29T18:29:49.490Z,15.77
2019-01-29T18:32:19.415Z,16.87
2019-01-29T18:34:49.370Z,16.07
2019-01-29T18:37:19.225Z,14.83
2019-01-29T18:39:49.164Z,15.27
2019-01-29T18:42:19.321Z,15.23
2019-01-29T18:44:49.581Z,14.87
2019-01-29T18:47:19.905Z,15.70
2019-01-29T18:49:50.181Z,16.97
2019-01-29T18:52:20.154Z,15.93
2019-01-29T18:54:50.577Z,16.00
2019-01-29T18:57:21.591Z,16.07
2019-01-29T18:59:51.578Z,15.93
2019-01-29T19:02:21.621Z,14.90
2019-01-29T19:04:51.702Z,16.80
2019-01-29T19:07:21.562Z,19.47
2019-01-29T19:09:51.726Z,17.27
2019-01-29T19:12:22.358Z,17.47
2019-01-29T19:14:52.665Z,17.77
2019-01-29T19:17:24.227Z,17.50
2019-01-29T19:19:54.286Z,17.80
2019-01-29T19:22:24.626Z,18.87
2019-01-29T19:24:54.590Z,18.43
2019-01-29T19:27:24.418Z,18.97
2019-01-29T19:29:54.265Z,19.20
2019-01-29T19:32:24.197Z,20.43
2019-01-29T19:34:54.745Z,20.93
2019-01-29T19:37:25.385Z,21.80
2019-01-29T19:39:57.069Z,20.57
2019-01-29T19:42:27.876Z,19.87
2019-01-29T19:44:58.379Z,20.00
2019-01-29T19:47:29.870Z,20.40
2019-01-29T19:50:00.294Z,19.57
2019-01-29T19:52:31.158Z,19.50
2019-01-29T19:55:02.291Z,19.60
2019-01-29T19:57:32.461Z,19.00
2019-01-29T20:00:02.510Z,20.00
2019-01-29T20:02:33.958Z,20.47
2019-01-29T20:05:08.534Z,23.00
2019-01-29T20:07:40.303Z,20.97
2019-01-29T20:10:14.798Z,22.93
2019-01-29T20:13:02.490Z,23.17
2019-01-29T20:15:33.379Z,22.17
2019-01-29T20:18:05.682Z,22.33
2019-01-29T20:20:38.814Z,22.03
2019-01-29T20:23:11.161Z,19.90
2019-01-29T20:25:41.754Z,21.33
2019-01-29T20:28:19.202Z,21.20
2019-01-29T20:30:51.857Z,19.93
2019-01-29T20:33:26.666Z,21.27
2019-01-29T20:35:57.202Z,20.07
2019-01-29T20:38:34.914Z,19.47
2019-01-29T20:41:00.582Z,19.53
2019-01-29T20:43:33.942Z,20.90
2019-01-29T20:46:05.272Z,21.27
2019-01-29T20:48:38.037Z,20.73
2019-01-29T20:51:09.966Z,20.40
2019-01-29T20:53:39.915Z,20.77
2019-01-29T20:56:12.935Z,20.60
2019-01-29T20:58:52.319Z,20.40
2019-01-29T21:01:16.363Z,20.87
2019-01-29T21:03:46.946Z,20.43
2019-01-29T21:06:19.325Z,20.30
2019-01-29T21:08:51.070Z,19.80
2019-01-29T21:11:22.022Z,20.50
2019-01-29T21:13:52.118Z,20.73
2019-01-29T21:16:24.183Z,20.63
2019-01-29T21:18:56.003Z,19.13
2019-01-29T21:21:26.629Z,20.97
2019-01-29T21:23:57.330Z,20.83
2019-01-29T21:26:27.530Z,20.73
2019-01-29T21:29:03.138Z,20.70
2019-01-29T21:31:28.992Z,21.63
2019-01-29T21:33:59.521Z,21.23
2019-01-29T21:36:30.462Z,21.90
2019-01-29T21:39:01.504Z,21.37
2019-01-29T21:41:33.022Z,20.13
2019-01-29T21:44:04.042Z,21.57
2019-01-29T21:46:46.027Z,23.00
2019-01-29T21:49:21.461Z,23.27
2019-01-29T21:52:16.833Z,23.57
2019-01-29T21:55:17.354Z,24.37
2019-01-29T21:57:49.985Z,24.67
2019-01-29T22:00:23.356Z,25.83
2019-01-29T22:02:55.443Z,27.00
2019-01-29T22:05:27.008Z,28.00
2019-01-29T22:07:59.186Z,30.57
2019-01-29T22:10:29.576Z,28.70
2019-01-29T22:13:05.358Z,30.57
2019-01-29T22:15:37.515Z,30.13
2019-01-29T22:18:10.152Z,29.93
2019-01-29T22:20:42.550Z,31.43
2019-01-29T22:23:14.194Z,31.20
2019-01-29T22:25:46.294Z,31.87
2019-01-29T22:28:16.832Z,30.90
2019-01-29T22:30:46.779Z,32.67
2019-01-29T22:33:17.067Z,33.23
2019-01-29T22:35:49.649Z,32.57
2019-01-29T22:38:22.094Z,34.17
2019-01-29T22:40:52.088Z,34.53
2019-01-29T22:43:22.784Z,33.83
2019-01-29T22:45:53.514Z,34.77
2019-01-29T22:48:23.856Z,33.67
2019-01-29T22:50:53.953Z,34.40
2019-01-29T22:53:25.830Z,34.67
2019-01-29T22:55:55.751Z,34.73
2019-01-29T22:58:27.317Z,31.83
2019-01-29T23:01:00.783Z,35.00
2019-01-29T23:03:37.801Z,26.27
2019-01-29T23:06:27.014Z,27.87
2019-01-29T23:08:57.071Z,18.53
2019-01-29T23:11:27.112Z,16.70
2019-01-29T23:13:57.182Z,15.57
2019-01-29T23:16:27.332Z,15.40
2019-01-29T23:18:58.852Z,14.77
2019-01-29T23:21:30.478Z,13.33
2019-01-29T23:24:01.456Z,13.17
2019-01-29T23:26:31.560Z,11.40
2019-01-29T23:29:02.237Z,11.27
2019-01-29T23:31:33.223Z,11.17
2019-01-29T23:34:03.655Z,11.90
2019-01-29T23:36:33.483Z,12.63
2019-01-29T23:39:04.748Z,12.43
2019-01-29T23:41:37.070Z,12.50
2019-01-29T23:44:08.776Z,13.43
2019-01-29T23:46:39.927Z,13.83
2019-01-29T23:49:10.448Z,13.80
2019-01-29T23:51:40.991Z,17.97
2019-01-29T23:54:11.371Z,16.30
2019-01-29T23:56:44.307Z,13.33
2019-01-29T23:59:15.442Z,12.80
